sensor_id;sensor_type;location;lat;lon;timestamp;temperature;humidity
73777;DHT22;62088;50.240;2.696;2023-09-19T00:00:38;16.00;73.70
73777;DHT22;62088;50.240;2.696;2023-09-19T00:03:09;15.90;73.70
73777;DHT22;62088;50.240;2.696;2023-09-19T00:05:37;15.90;73.70
73777;DHT22;62088;50.240;2.696;2023-09-19T00:08:05;15.90;73.70
73777;DHT22;62088;50.240;2.696;2023-09-19T00:10:33;15.90;73.70
73777;DHT22;62088;50.240;2.696;2023-09-19T00:13:04;15.90;73.70
73777;DHT22;62088;50.240;2.696;2023-09-19T00:15:40;15.90;73.80
73777;DHT22;62088;50.240;2.696;2023-09-19T00:18:07;15.90;73.80
73777;DHT22;62088;50.240;2.696;2023-09-19T00:20:36;15.80;73.80
73777;DHT22;62088;50.240;2.696;2023-09-19T00:23:04;15.80;73.80
73777;DHT22;62088;50.240;2.696;2023-09-19T00:25:31;15.80;73.80
73777;DHT22;62088;50.240;2.696;2023-09-19T00:28:03;15.80;73.70
73777;DHT22;62088;50.240;2.696;2023-09-19T00:30:30;15.80;73.80
73777;DHT22;62088;50.240;2.696;2023-09-19T00:32:57;15.70;73.80
73777;DHT22;62088;50.240;2.696;2023-09-19T00:35:24;15.70;73.80
73777;DHT22;62088;50.240;2.696;2023-09-19T00:37:52;15.80;73.80
73777;DHT22;62088;50.240;2.696;2023-09-19T00:40:19;15.70;73.80
73777;DHT22;62088;50.240;2.696;2023-09-19T00:42:49;15.70;73.90
73777;DHT22;62088;50.240;2.696;2023-09-19T00:45:18;15.70;73.90
73777;DHT22;62088;50.240;2.696;2023-09-19T00:47:47;15.70;73.90
73777;DHT22;62088;50.240;2.696;2023-09-19T00:50:23;15.70;74.00
73777;DHT22;62088;50.240;2.696;2023-09-19T00:52:54;15.60;74.00
73777;DHT22;62088;50.240;2.696;2023-09-19T00:55:25;15.60;74.10
73777;DHT22;62088;50.240;2.696;2023-09-19T00:57:55;15.60;74.20
73777;DHT22;62088;50.240;2.696;2023-09-19T01:00:23;15.60;74.20
73777;DHT22;62088;50.240;2.696;2023-09-19T01:02:51;15.60;74.30
73777;DHT22;62088;50.240;2.696;2023-09-19T01:05:19;15.60;74.30
73777;DHT22;62088;50.240;2.696;2023-09-19T01:07:46;15.60;74.30
73777;DHT22;62088;50.240;2.696;2023-09-19T01:10:17;15.60;74.40
73777;DHT22;62088;50.240;2.696;2023-09-19T01:15:55;15.60;74.40
73777;DHT22;62088;50.240;2.696;2023-09-19T01:18:35;15.50;74.40
73777;DHT22;62088;50.240;2.696;2023-09-19T01:22:05;15.60;74.40
73777;DHT22;62088;50.240;2.696;2023-09-19T01:24:59;15.50;74.40
73777;DHT22;62088;50.240;2.696;2023-09-19T01:30:21;15.50;74.60
73777;DHT22;62088;50.240;2.696;2023-09-19T01:32:52;15.50;74.60
73777;DHT22;62088;50.240;2.696;2023-09-19T01:35:19;15.50;74.70
73777;DHT22;62088;50.240;2.696;2023-09-19T01:37:46;15.50;74.80
73777;DHT22;62088;50.240;2.696;2023-09-19T01:40:36;15.50;74.80
73777;DHT22;62088;50.240;2.696;2023-09-19T01:46:09;15.60;75.00
73777;DHT22;62088;50.240;2.696;2023-09-19T01:48:48;15.60;75.10
73777;DHT22;62088;50.240;2.696;2023-09-19T01:51:34;15.60;75.40
73777;DHT22;62088;50.240;2.696;2023-09-19T01:54:09;15.60;75.40
73777;DHT22;62088;50.240;2.696;2023-09-19T01:56:45;15.60;75.50
73777;DHT22;62088;50.240;2.696;2023-09-19T01:59:25;15.50;75.60
73777;DHT22;62088;50.240;2.696;2023-09-19T02:01:55;15.50;75.70
73777;DHT22;62088;50.240;2.696;2023-09-19T02:04:23;15.40;75.80
73777;DHT22;62088;50.240;2.696;2023-09-19T02:06:50;15.40;75.80
73777;DHT22;62088;50.240;2.696;2023-09-19T02:09:18;15.40;75.90
73777;DHT22;62088;50.240;2.696;2023-09-19T02:11:45;15.40;76.00
73777;DHT22;62088;50.240;2.696;2023-09-19T02:14:13;15.40;76.10
73777;DHT22;62088;50.240;2.696;2023-09-19T02:16:40;15.40;76.20
73777;DHT22;62088;50.240;2.696;2023-09-19T02:19:08;15.40;76.30
73777;DHT22;62088;50.240;2.696;2023-09-19T02:21:54;15.40;76.40
73777;DHT22;62088;50.240;2.696;2023-09-19T02:24:21;15.30;76.60
73777;DHT22;62088;50.240;2.696;2023-09-19T02:26:48;15.40;76.70
73777;DHT22;62088;50.240;2.696;2023-09-19T02:29:15;15.40;76.70
73777;DHT22;62088;50.240;2.696;2023-09-19T02:31:42;15.40;76.80
73777;DHT22;62088;50.240;2.696;2023-09-19T02:34:09;15.40;76.80
73777;DHT22;62088;50.240;2.696;2023-09-19T02:36:37;15.40;76.80
73777;DHT22;62088;50.240;2.696;2023-09-19T02:39:04;15.30;76.90
73777;DHT22;62088;50.240;2.696;2023-09-19T02:41:32;15.40;76.90
73777;DHT22;62088;50.240;2.696;2023-09-19T02:44:00;15.30;76.90
73777;DHT22;62088;50.240;2.696;2023-09-19T02:46:29;15.40;76.90
73777;DHT22;62088;50.240;2.696;2023-09-19T02:48:56;15.40;77.00
73777;DHT22;62088;50.240;2.696;2023-09-19T02:51:23;15.30;77.00
73777;DHT22;62088;50.240;2.696;2023-09-19T02:53:50;15.30;77.00
73777;DHT22;62088;50.240;2.696;2023-09-19T02:56:19;15.30;77.00
73777;DHT22;62088;50.240;2.696;2023-09-19T02:58:46;15.30;77.10
73777;DHT22;62088;50.240;2.696;2023-09-19T03:01:15;15.30;77.10
73777;DHT22;62088;50.240;2.696;2023-09-19T03:03:43;15.30;77.10
73777;DHT22;62088;50.240;2.696;2023-09-19T03:06:10;15.30;77.20
73777;DHT22;62088;50.240;2.696;2023-09-19T03:08:37;15.30;77.20
73777;DHT22;62088;50.240;2.696;2023-09-19T03:11:06;15.20;77.30
73777;DHT22;62088;50.240;2.696;2023-09-19T03:13:37;15.20;77.30
73777;DHT22;62088;50.240;2.696;2023-09-19T03:16:06;15.20;77.40
73777;DHT22;62088;50.240;2.696;2023-09-19T03:18:36;15.20;77.40
73777;DHT22;62088;50.240;2.696;2023-09-19T03:21:03;15.20;77.40
73777;DHT22;62088;50.240;2.696;2023-09-19T03:23:31;15.20;77.50
73777;DHT22;62088;50.240;2.696;2023-09-19T03:25:58;15.20;77.60
73777;DHT22;62088;50.240;2.696;2023-09-19T03:28:26;15.20;77.60
73777;DHT22;62088;50.240;2.696;2023-09-19T03:31:05;15.10;77.70
73777;DHT22;62088;50.240;2.696;2023-09-19T03:33:35;15.20;77.70
73777;DHT22;62088;50.240;2.696;2023-09-19T03:36:03;15.10;77.70
73777;DHT22;62088;50.240;2.696;2023-09-19T03:38:34;15.10;77.70
73777;DHT22;62088;50.240;2.696;2023-09-19T03:41:02;15.20;77.70
73777;DHT22;62088;50.240;2.696;2023-09-19T03:43:31;15.10;77.80
73777;DHT22;62088;50.240;2.696;2023-09-19T03:46:02;15.10;77.80
73777;DHT22;62088;50.240;2.696;2023-09-19T03:48:50;15.10;77.90
73777;DHT22;62088;50.240;2.696;2023-09-19T03:51:18;15.10;77.90
73777;DHT22;62088;50.240;2.696;2023-09-19T03:53:45;15.10;77.90
73777;DHT22;62088;50.240;2.696;2023-09-19T03:56:12;15.10;77.90
73777;DHT22;62088;50.240;2.696;2023-09-19T03:58:39;15.10;77.90
73777;DHT22;62088;50.240;2.696;2023-09-19T04:01:07;15.10;77.90
73777;DHT22;62088;50.240;2.696;2023-09-19T04:03:34;15.00;77.90
73777;DHT22;62088;50.240;2.696;2023-09-19T04:06:16;15.10;78.00
73777;DHT22;62088;50.240;2.696;2023-09-19T04:08:43;15.00;78.00
73777;DHT22;62088;50.240;2.696;2023-09-19T04:11:11;15.00;78.10
73777;DHT22;62088;50.240;2.696;2023-09-19T04:13:38;15.10;78.10
73777;DHT22;62088;50.240;2.696;2023-09-19T04:16:06;15.00;78.20
73777;DHT22;62088;50.240;2.696;2023-09-19T04:18:37;15.10;78.20
73777;DHT22;62088;50.240;2.696;2023-09-19T04:21:07;15.00;78.20
73777;DHT22;62088;50.240;2.696;2023-09-19T04:23:53;15.00;78.20
73777;DHT22;62088;50.240;2.696;2023-09-19T04:26:20;15.00;78.20
73777;DHT22;62088;50.240;2.696;2023-09-19T04:28:47;15.00;78.20
73777;DHT22;62088;50.240;2.696;2023-09-19T04:31:14;15.10;78.20
73777;DHT22;62088;50.240;2.696;2023-09-19T04:33:41;15.00;78.20
73777;DHT22;62088;50.240;2.696;2023-09-19T04:36:10;15.00;78.10
73777;DHT22;62088;50.240;2.696;2023-09-19T04:38:57;15.10;78.10
73777;DHT22;62088;50.240;2.696;2023-09-19T04:41:24;15.10;78.10
73777;DHT22;62088;50.240;2.696;2023-09-19T04:43:51;15.00;78.10
73777;DHT22;62088;50.240;2.696;2023-09-19T04:46:18;15.00;78.10
73777;DHT22;62088;50.240;2.696;2023-09-19T04:48:46;15.00;78.10
73777;DHT22;62088;50.240;2.696;2023-09-19T04:51:12;15.00;78.10
73777;DHT22;62088;50.240;2.696;2023-09-19T04:53:40;15.00;78.10
73777;DHT22;62088;50.240;2.696;2023-09-19T04:56:08;15.00;78.10
73777;DHT22;62088;50.240;2.696;2023-09-19T04:58:35;15.00;78.10
73777;DHT22;62088;50.240;2.696;2023-09-19T05:01:02;15.00;78.00
73777;DHT22;62088;50.240;2.696;2023-09-19T05:03:30;14.90;78.00
73777;DHT22;62088;50.240;2.696;2023-09-19T05:05:57;14.90;78.10
73777;DHT22;62088;50.240;2.696;2023-09-19T05:08:24;14.90;78.10
73777;DHT22;62088;50.240;2.696;2023-09-19T05:10:52;14.90;78.10
73777;DHT22;62088;50.240;2.696;2023-09-19T05:13:19;14.90;78.10
73777;DHT22;62088;50.240;2.696;2023-09-19T05:15:46;14.90;78.10
73777;DHT22;62088;50.240;2.696;2023-09-19T05:18:13;14.90;78.20
73777;DHT22;62088;50.240;2.696;2023-09-19T05:20:40;14.90;78.20
73777;DHT22;62088;50.240;2.696;2023-09-19T05:23:07;14.90;78.20
73777;DHT22;62088;50.240;2.696;2023-09-19T05:25:36;14.90;78.30
73777;DHT22;62088;50.240;2.696;2023-09-19T05:28:08;14.90;78.30
73777;DHT22;62088;50.240;2.696;2023-09-19T05:30:36;14.80;78.40
73777;DHT22;62088;50.240;2.696;2023-09-19T05:33:04;14.80;78.40
73777;DHT22;62088;50.240;2.696;2023-09-19T05:35:31;14.80;78.50
73777;DHT22;62088;50.240;2.696;2023-09-19T05:37:58;14.80;78.50
73777;DHT22;62088;50.240;2.696;2023-09-19T05:40:26;14.80;78.50
73777;DHT22;62088;50.240;2.696;2023-09-19T05:42:54;14.80;78.50
73777;DHT22;62088;50.240;2.696;2023-09-19T05:45:21;14.80;78.50
73777;DHT22;62088;50.240;2.696;2023-09-19T05:47:52;14.80;78.50
73777;DHT22;62088;50.240;2.696;2023-09-19T05:50:23;14.80;78.60
73777;DHT22;62088;50.240;2.696;2023-09-19T05:52:53;14.80;78.50
73777;DHT22;62088;50.240;2.696;2023-09-19T05:55:20;14.80;78.60
73777;DHT22;62088;50.240;2.696;2023-09-19T05:57:51;14.80;78.60
73777;DHT22;62088;50.240;2.696;2023-09-19T06:00:22;14.80;78.70
73777;DHT22;62088;50.240;2.696;2023-09-19T06:02:57;14.70;78.70
73777;DHT22;62088;50.240;2.696;2023-09-19T06:05:26;14.70;78.70
73777;DHT22;62088;50.240;2.696;2023-09-19T06:07:59;14.70;78.70
73777;DHT22;62088;50.240;2.696;2023-09-19T06:10:27;14.70;78.80
73777;DHT22;62088;50.240;2.696;2023-09-19T06:12:58;14.70;78.80
73777;DHT22;62088;50.240;2.696;2023-09-19T06:15:25;14.70;78.80
73777;DHT22;62088;50.240;2.696;2023-09-19T06:17:55;14.70;78.80
73777;DHT22;62088;50.240;2.696;2023-09-19T06:20:23;14.70;78.90
73777;DHT22;62088;50.240;2.696;2023-09-19T06:23:09;14.70;78.90
73777;DHT22;62088;50.240;2.696;2023-09-19T06:25:36;14.70;78.90
73777;DHT22;62088;50.240;2.696;2023-09-19T06:28:04;14.70;78.90
73777;DHT22;62088;50.240;2.696;2023-09-19T06:30:32;14.70;78.90
73777;DHT22;62088;50.240;2.696;2023-09-19T06:32:59;14.70;79.00
73777;DHT22;62088;50.240;2.696;2023-09-19T06:35:33;14.70;79.00
73777;DHT22;62088;50.240;2.696;2023-09-19T06:38:03;14.70;79.00
73777;DHT22;62088;50.240;2.696;2023-09-19T06:40:31;14.70;79.00
73777;DHT22;62088;50.240;2.696;2023-09-19T06:42:58;14.70;79.10
73777;DHT22;62088;50.240;2.696;2023-09-19T06:45:25;14.70;79.10
73777;DHT22;62088;50.240;2.696;2023-09-19T06:47:54;14.80;79.10
73777;DHT22;62088;50.240;2.696;2023-09-19T06:50:26;14.70;79.10
73777;DHT22;62088;50.240;2.696;2023-09-19T06:52:54;14.80;79.10
73777;DHT22;62088;50.240;2.696;2023-09-19T06:55:24;14.80;79.20
73777;DHT22;62088;50.240;2.696;2023-09-19T06:57:55;14.80;79.20
73777;DHT22;62088;50.240;2.696;2023-09-19T07:00:22;14.80;79.20
73777;DHT22;62088;50.240;2.696;2023-09-19T07:02:59;14.80;79.20
73777;DHT22;62088;50.240;2.696;2023-09-19T07:05:33;14.80;79.20
73777;DHT22;62088;50.240;2.696;2023-09-19T07:08:07;14.90;79.20
73777;DHT22;62088;50.240;2.696;2023-09-19T07:10:35;14.90;79.20
73777;DHT22;62088;50.240;2.696;2023-09-19T07:13:02;14.90;79.20
73777;DHT22;62088;50.240;2.696;2023-09-19T07:15:32;14.90;79.20
73777;DHT22;62088;50.240;2.696;2023-09-19T07:18:06;14.90;79.20
73777;DHT22;62088;50.240;2.696;2023-09-19T07:20:33;14.90;79.20
73777;DHT22;62088;50.240;2.696;2023-09-19T07:23:00;15.00;79.10
73777;DHT22;62088;50.240;2.696;2023-09-19T07:25:29;15.00;79.10
73777;DHT22;62088;50.240;2.696;2023-09-19T07:27:57;15.10;79.10
73777;DHT22;62088;50.240;2.696;2023-09-19T07:30:28;15.10;79.10
73777;DHT22;62088;50.240;2.696;2023-09-19T07:32:56;15.10;79.10
73777;DHT22;62088;50.240;2.696;2023-09-19T07:35:23;15.20;79.10
73777;DHT22;62088;50.240;2.696;2023-09-19T07:37:50;15.20;79.10
73777;DHT22;62088;50.240;2.696;2023-09-19T07:40:19;15.30;79.00
73777;DHT22;62088;50.240;2.696;2023-09-19T07:42:48;15.30;79.00
73777;DHT22;62088;50.240;2.696;2023-09-19T07:45:16;15.40;78.90
73777;DHT22;62088;50.240;2.696;2023-09-19T07:47:48;15.40;78.90
73777;DHT22;62088;50.240;2.696;2023-09-19T07:50:16;15.40;78.80
73777;DHT22;62088;50.240;2.696;2023-09-19T07:52:47;15.50;78.70
73777;DHT22;62088;50.240;2.696;2023-09-19T07:55:14;15.50;78.60
73777;DHT22;62088;50.240;2.696;2023-09-19T07:57:46;15.60;78.50
73777;DHT22;62088;50.240;2.696;2023-09-19T08:00:14;15.60;78.40
73777;DHT22;62088;50.240;2.696;2023-09-19T08:03:00;15.60;78.40
73777;DHT22;62088;50.240;2.696;2023-09-19T08:05:38;15.70;78.20
73777;DHT22;62088;50.240;2.696;2023-09-19T08:08:07;15.80;78.10
73777;DHT22;62088;50.240;2.696;2023-09-19T08:10:35;15.80;78.00
73777;DHT22;62088;50.240;2.696;2023-09-19T08:13:02;15.90;77.90
73777;DHT22;62088;50.240;2.696;2023-09-19T08:15:29;15.90;77.90
73777;DHT22;62088;50.240;2.696;2023-09-19T08:17:56;15.90;77.60
73777;DHT22;62088;50.240;2.696;2023-09-19T08:20:24;15.90;77.50
73777;DHT22;62088;50.240;2.696;2023-09-19T08:22:52;16.00;77.40
73777;DHT22;62088;50.240;2.696;2023-09-19T08:25:21;16.10;77.20
73777;DHT22;62088;50.240;2.696;2023-09-19T08:27:49;16.10;77.10
73777;DHT22;62088;50.240;2.696;2023-09-19T08:30:18;16.20;76.90
73777;DHT22;62088;50.240;2.696;2023-09-19T08:32:47;16.20;76.70
73777;DHT22;62088;50.240;2.696;2023-09-19T08:35:14;16.20;76.60
73777;DHT22;62088;50.240;2.696;2023-09-19T08:37:45;16.30;76.30
73777;DHT22;62088;50.240;2.696;2023-09-19T08:40:13;16.40;76.20
73777;DHT22;62088;50.240;2.696;2023-09-19T08:45:21;16.40;76.00
73777;DHT22;62088;50.240;2.696;2023-09-19T08:50:29;16.50;75.90
73777;DHT22;62088;50.240;2.696;2023-09-19T08:53:01;16.60;75.80
73777;DHT22;62088;50.240;2.696;2023-09-19T08:55:29;16.60;75.70
73777;DHT22;62088;50.240;2.696;2023-09-19T08:58:03;16.60;75.50
73777;DHT22;62088;50.240;2.696;2023-09-19T09:00:32;16.70;75.30
73777;DHT22;62088;50.240;2.696;2023-09-19T09:03:01;16.80;75.20
73777;DHT22;62088;50.240;2.696;2023-09-19T09:05:30;16.80;75.10
73777;DHT22;62088;50.240;2.696;2023-09-19T09:07:59;16.80;74.80
73777;DHT22;62088;50.240;2.696;2023-09-19T09:10:26;16.90;74.60
73777;DHT22;62088;50.240;2.696;2023-09-19T09:12:54;16.90;74.60
73777;DHT22;62088;50.240;2.696;2023-09-19T09:15:23;16.90;74.60
73777;DHT22;62088;50.240;2.696;2023-09-19T09:17:51;17.00;74.60
73777;DHT22;62088;50.240;2.696;2023-09-19T09:20:20;17.10;74.60
73777;DHT22;62088;50.240;2.696;2023-09-19T09:22:54;17.20;74.60
73777;DHT22;62088;50.240;2.696;2023-09-19T09:25:22;17.30;74.40
73777;DHT22;62088;50.240;2.696;2023-09-19T09:28:02;17.40;74.10
73777;DHT22;62088;50.240;2.696;2023-09-19T09:30:48;17.50;73.80
73777;DHT22;62088;50.240;2.696;2023-09-19T09:33:16;17.60;73.60
73777;DHT22;62088;50.240;2.696;2023-09-19T09:36:00;17.80;73.60
73777;DHT22;62088;50.240;2.696;2023-09-19T09:38:42;17.90;73.20
73777;DHT22;62088;50.240;2.696;2023-09-19T09:41:10;18.00;72.80
73777;DHT22;62088;50.240;2.696;2023-09-19T09:43:42;18.10;71.90
73777;DHT22;62088;50.240;2.696;2023-09-19T09:46:19;18.20;71.40
73777;DHT22;62088;50.240;2.696;2023-09-19T09:48:58;18.30;71.20
73777;DHT22;62088;50.240;2.696;2023-09-19T09:51:51;18.40;70.90
73777;DHT22;62088;50.240;2.696;2023-09-19T09:54:29;18.50;70.80
73777;DHT22;62088;50.240;2.696;2023-09-19T09:57:08;18.50;70.60
73777;DHT22;62088;50.240;2.696;2023-09-19T10:00:03;18.60;69.80
73777;DHT22;62088;50.240;2.696;2023-09-19T10:02:56;18.60;69.70
73777;DHT22;62088;50.240;2.696;2023-09-19T10:05:24;18.50;69.80
73777;DHT22;62088;50.240;2.696;2023-09-19T10:07:55;18.50;69.90
73777;DHT22;62088;50.240;2.696;2023-09-19T10:10:39;18.50;69.90
73777;DHT22;62088;50.240;2.696;2023-09-19T10:13:11;18.50;70.00
73777;DHT22;62088;50.240;2.696;2023-09-19T10:15:48;18.50;70.00
73777;DHT22;62088;50.240;2.696;2023-09-19T10:18:38;18.60;69.90
73777;DHT22;62088;50.240;2.696;2023-09-19T10:21:09;18.50;69.80
73777;DHT22;62088;50.240;2.696;2023-09-19T10:23:38;18.50;69.90
73777;DHT22;62088;50.240;2.696;2023-09-19T10:26:09;18.50;69.80
73777;DHT22;62088;50.240;2.696;2023-09-19T10:28:37;18.50;70.00
73777;DHT22;62088;50.240;2.696;2023-09-19T10:31:06;18.50;69.80
73777;DHT22;62088;50.240;2.696;2023-09-19T10:33:36;18.50;69.90
73777;DHT22;62088;50.240;2.696;2023-09-19T10:36:08;18.50;70.10
73777;DHT22;62088;50.240;2.696;2023-09-19T10:38:37;18.50;70.10
73777;DHT22;62088;50.240;2.696;2023-09-19T10:41:08;18.60;70.40
73777;DHT22;62088;50.240;2.696;2023-09-19T10:43:38;18.70;70.30
73777;DHT22;62088;50.240;2.696;2023-09-19T10:46:07;18.90;70.20
73777;DHT22;62088;50.240;2.696;2023-09-19T10:48:38;19.00;69.90
73777;DHT22;62088;50.240;2.696;2023-09-19T10:51:17;19.10;69.70
73777;DHT22;62088;50.240;2.696;2023-09-19T10:53:54;19.20;69.60
73777;DHT22;62088;50.240;2.696;2023-09-19T10:56:34;19.30;69.20
73777;DHT22;62088;50.240;2.696;2023-09-19T10:59:11;19.50;68.90
73777;DHT22;62088;50.240;2.696;2023-09-19T11:01:53;19.60;68.60
73777;DHT22;62088;50.240;2.696;2023-09-19T11:04:33;19.70;68.30
73777;DHT22;62088;50.240;2.696;2023-09-19T11:07:12;19.90;67.80
73777;DHT22;62088;50.240;2.696;2023-09-19T11:15:08;20.30;66.80
73777;DHT22;62088;50.240;2.696;2023-09-19T11:17:41;20.40;66.40
73777;DHT22;62088;50.240;2.696;2023-09-19T11:30:46;20.90;64.10
73777;DHT22;62088;50.240;2.696;2023-09-19T11:33:20;20.90;64.20
73777;DHT22;62088;50.240;2.696;2023-09-19T11:43:49;21.10;64.00
73777;DHT22;62088;50.240;2.696;2023-09-19T11:46:22;21.00;63.40
73777;DHT22;62088;50.240;2.696;2023-09-19T11:48:51;21.00;63.50
73777;DHT22;62088;50.240;2.696;2023-09-19T11:51:20;20.90;63.50
73777;DHT22;62088;50.240;2.696;2023-09-19T11:53:55;20.90;63.60
73777;DHT22;62088;50.240;2.696;2023-09-19T11:56:24;20.80;63.50
73777;DHT22;62088;50.240;2.696;2023-09-19T11:58:54;20.80;63.60
73777;DHT22;62088;50.240;2.696;2023-09-19T12:01:33;20.70;63.80
73777;DHT22;62088;50.240;2.696;2023-09-19T12:04:03;20.60;63.90
73777;DHT22;62088;50.240;2.696;2023-09-19T12:06:32;20.60;64.10
73777;DHT22;62088;50.240;2.696;2023-09-19T12:08:59;20.50;64.20
73777;DHT22;62088;50.240;2.696;2023-09-19T12:11:30;20.40;64.10
73777;DHT22;62088;50.240;2.696;2023-09-19T12:14:01;20.40;64.10
73777;DHT22;62088;50.240;2.696;2023-09-19T12:16:29;20.30;64.20
73777;DHT22;62088;50.240;2.696;2023-09-19T12:18:57;20.30;64.40
73777;DHT22;62088;50.240;2.696;2023-09-19T12:21:31;20.30;64.60
73777;DHT22;62088;50.240;2.696;2023-09-19T12:24:12;20.30;64.90
73777;DHT22;62088;50.240;2.696;2023-09-19T12:26:46;20.40;65.20
73777;DHT22;62088;50.240;2.696;2023-09-19T12:29:20;20.30;65.20
73777;DHT22;62088;50.240;2.696;2023-09-19T12:31:52;20.30;65.10
73777;DHT22;62088;50.240;2.696;2023-09-19T12:34:29;20.20;65.20
73777;DHT22;62088;50.240;2.696;2023-09-19T12:37:16;20.20;65.20
73777;DHT22;62088;50.240;2.696;2023-09-19T12:40:06;20.10;65.40
73777;DHT22;62088;50.240;2.696;2023-09-19T12:42:42;20.10;65.50
73777;DHT22;62088;50.240;2.696;2023-09-19T12:45:11;20.00;65.60
73777;DHT22;62088;50.240;2.696;2023-09-19T12:48:17;19.90;65.70
73777;DHT22;62088;50.240;2.696;2023-09-19T12:51:20;19.90;66.00
73777;DHT22;62088;50.240;2.696;2023-09-19T12:53:57;19.90;66.10
73777;DHT22;62088;50.240;2.696;2023-09-19T12:56:24;19.90;66.20
73777;DHT22;62088;50.240;2.696;2023-09-19T12:58:53;19.80;66.20
73777;DHT22;62088;50.240;2.696;2023-09-19T13:01:22;19.80;66.10
73777;DHT22;62088;50.240;2.696;2023-09-19T13:04:13;19.70;66.10
73777;DHT22;62088;50.240;2.696;2023-09-19T13:06:49;19.70;66.20
73777;DHT22;62088;50.240;2.696;2023-09-19T13:09:18;19.70;66.30
73777;DHT22;62088;50.240;2.696;2023-09-19T13:11:48;19.70;66.30
73777;DHT22;62088;50.240;2.696;2023-09-19T13:14:23;19.60;66.40
73777;DHT22;62088;50.240;2.696;2023-09-19T13:17:04;19.60;66.60
73777;DHT22;62088;50.240;2.696;2023-09-19T13:22:44;19.70;66.80
73777;DHT22;62088;50.240;2.696;2023-09-19T13:25:20;19.70;66.90
73777;DHT22;62088;50.240;2.696;2023-09-19T13:27:52;19.70;67.00
73777;DHT22;62088;50.240;2.696;2023-09-19T13:30:22;19.70;67.00
73777;DHT22;62088;50.240;2.696;2023-09-19T13:32:49;19.70;67.10
73777;DHT22;62088;50.240;2.696;2023-09-19T13:35:17;19.60;67.20
73777;DHT22;62088;50.240;2.696;2023-09-19T13:37:46;19.60;67.40
73777;DHT22;62088;50.240;2.696;2023-09-19T13:40:16;19.60;67.60
73777;DHT22;62088;50.240;2.696;2023-09-19T13:42:43;19.70;67.60
73777;DHT22;62088;50.240;2.696;2023-09-19T13:45:10;19.60;67.70
73777;DHT22;62088;50.240;2.696;2023-09-19T13:47:40;19.70;67.80
73777;DHT22;62088;50.240;2.696;2023-09-19T13:50:08;19.70;67.80
73777;DHT22;62088;50.240;2.696;2023-09-19T13:52:36;19.80;67.70
73777;DHT22;62088;50.240;2.696;2023-09-19T13:55:03;19.80;67.70
73777;DHT22;62088;50.240;2.696;2023-09-19T13:57:32;19.80;67.60
73777;DHT22;62088;50.240;2.696;2023-09-19T14:00:00;19.80;67.70
73777;DHT22;62088;50.240;2.696;2023-09-19T14:02:27;19.80;67.70
73777;DHT22;62088;50.240;2.696;2023-09-19T14:04:54;19.80;67.80
73777;DHT22;62088;50.240;2.696;2023-09-19T14:07:22;19.90;67.90
73777;DHT22;62088;50.240;2.696;2023-09-19T14:09:49;19.90;67.80
73777;DHT22;62088;50.240;2.696;2023-09-19T14:12:16;19.90;67.90
73777;DHT22;62088;50.240;2.696;2023-09-19T14:14:43;19.90;68.00
73777;DHT22;62088;50.240;2.696;2023-09-19T14:17:12;19.90;67.90
73777;DHT22;62088;50.240;2.696;2023-09-19T14:19:41;19.90;68.00
73777;DHT22;62088;50.240;2.696;2023-09-19T14:22:12;19.90;67.90
73777;DHT22;62088;50.240;2.696;2023-09-19T14:24:40;19.90;67.90
73777;DHT22;62088;50.240;2.696;2023-09-19T14:27:08;19.90;68.00
73777;DHT22;62088;50.240;2.696;2023-09-19T14:29:36;19.90;68.00
73777;DHT22;62088;50.240;2.696;2023-09-19T14:32:04;19.90;67.90
73777;DHT22;62088;50.240;2.696;2023-09-19T14:34:32;19.90;67.80
73777;DHT22;62088;50.240;2.696;2023-09-19T14:36:59;19.90;67.70
73777;DHT22;62088;50.240;2.696;2023-09-19T14:39:27;19.80;67.60
73777;DHT22;62088;50.240;2.696;2023-09-19T14:41:54;19.80;67.60
73777;DHT22;62088;50.240;2.696;2023-09-19T14:44:21;19.80;67.60
73777;DHT22;62088;50.240;2.696;2023-09-19T14:46:49;19.80;67.80
73777;DHT22;62088;50.240;2.696;2023-09-19T14:49:16;19.70;67.80
73777;DHT22;62088;50.240;2.696;2023-09-19T14:51:43;19.70;67.80
73777;DHT22;62088;50.240;2.696;2023-09-19T14:54:11;19.70;67.80
73777;DHT22;62088;50.240;2.696;2023-09-19T14:56:38;19.60;67.90
73777;DHT22;62088;50.240;2.696;2023-09-19T14:59:07;19.60;68.00
73777;DHT22;62088;50.240;2.696;2023-09-19T15:01:34;19.60;68.20
73777;DHT22;62088;50.240;2.696;2023-09-19T15:04:02;19.60;68.20
73777;DHT22;62088;50.240;2.696;2023-09-19T15:06:29;19.50;68.20
73777;DHT22;62088;50.240;2.696;2023-09-19T15:08:57;19.50;68.30
73777;DHT22;62088;50.240;2.696;2023-09-19T15:11:24;19.50;68.30
73777;DHT22;62088;50.240;2.696;2023-09-19T15:13:52;19.40;68.40
73777;DHT22;62088;50.240;2.696;2023-09-19T15:16:20;19.40;68.50
73777;DHT22;62088;50.240;2.696;2023-09-19T15:18:47;19.40;68.60
73777;DHT22;62088;50.240;2.696;2023-09-19T15:21:15;19.40;68.80
73777;DHT22;62088;50.240;2.696;2023-09-19T15:23:43;19.40;68.90
73777;DHT22;62088;50.240;2.696;2023-09-19T15:26:12;19.40;69.00
73777;DHT22;62088;50.240;2.696;2023-09-19T15:28:40;19.40;69.10
73777;DHT22;62088;50.240;2.696;2023-09-19T15:31:09;19.30;69.10
73777;DHT22;62088;50.240;2.696;2023-09-19T15:33:37;19.30;69.20
73777;DHT22;62088;50.240;2.696;2023-09-19T15:36:09;19.30;69.20
73777;DHT22;62088;50.240;2.696;2023-09-19T15:39:05;19.30;69.30
73777;DHT22;62088;50.240;2.696;2023-09-19T15:41:35;19.20;69.50
73777;DHT22;62088;50.240;2.696;2023-09-19T15:44:11;19.20;69.60
73777;DHT22;62088;50.240;2.696;2023-09-19T15:46:38;19.20;69.70
73777;DHT22;62088;50.240;2.696;2023-09-19T15:49:06;19.20;69.80
73777;DHT22;62088;50.240;2.696;2023-09-19T15:51:34;19.10;69.80
73777;DHT22;62088;50.240;2.696;2023-09-19T15:54:08;19.10;69.80
73777;DHT22;62088;50.240;2.696;2023-09-19T15:56:36;19.10;69.80
73777;DHT22;62088;50.240;2.696;2023-09-19T15:59:04;19.20;69.80
73777;DHT22;62088;50.240;2.696;2023-09-19T16:01:31;19.10;69.80
73777;DHT22;62088;50.240;2.696;2023-09-19T16:03:58;19.20;69.90
73777;DHT22;62088;50.240;2.696;2023-09-19T16:06:44;19.20;70.00
73777;DHT22;62088;50.240;2.696;2023-09-19T16:09:11;19.20;70.00
73777;DHT22;62088;50.240;2.696;2023-09-19T16:11:38;19.20;69.90
73777;DHT22;62088;50.240;2.696;2023-09-19T16:14:05;19.20;69.90
73777;DHT22;62088;50.240;2.696;2023-09-19T16:16:33;19.20;69.80
73777;DHT22;62088;50.240;2.696;2023-09-19T16:19:03;19.10;69.70
73777;DHT22;62088;50.240;2.696;2023-09-19T16:21:33;19.10;69.60
73777;DHT22;62088;50.240;2.696;2023-09-19T16:24:03;19.20;69.60
73777;DHT22;62088;50.240;2.696;2023-09-19T16:26:32;19.10;69.60
73777;DHT22;62088;50.240;2.696;2023-09-19T16:28:59;19.10;69.60
73777;DHT22;62088;50.240;2.696;2023-09-19T16:31:30;19.10;69.60
73777;DHT22;62088;50.240;2.696;2023-09-19T16:33:59;19.10;69.70